createdAt,value
2023-10-14T00:00:29.851Z,17.35
2023-10-14T00:03:23.683Z,17.34
2023-10-14T00:05:53.369Z,17.32
2023-10-14T00:08:33.670Z,17.26
2023-10-14T00:11:07.136Z,17.20
2023-10-14T00:13:46.746Z,17.13
2023-10-14T00:16:31.612Z,17.11
2023-10-14T00:19:06.780Z,17.09
2023-10-14T00:21:36.596Z,17.04
2023-10-14T00:24:13.861Z,17.00
2023-10-14T00:26:49.909Z,16.96
2023-10-14T00:29:19.768Z,16.91
2023-10-14T00:31:54.197Z,16.89
2023-10-14T00:34:25.173Z,16.82
2023-10-14T00:36:57.974Z,16.79
2023-10-14T00:39:31.921Z,16.76
2023-10-14T00:42:01.136Z,16.73
2023-10-14T00:44:30.441Z,16.70
2023-10-14T00:47:01.362Z,16.65
2023-10-14T00:49:33.448Z,16.63
2023-10-14T00:52:21.375Z,16.60
2023-10-14T00:54:55.600Z,16.54
2023-10-14T00:57:25.041Z,16.51
2023-10-14T00:59:57.769Z,16.48
2023-10-14T01:02:34.740Z,16.46
2023-10-14T01:05:15.446Z,16.43
2023-10-14T01:07:47.802Z,16.40
2023-10-14T01:10:25.955Z,16.38
2023-10-14T01:12:57.296Z,16.33
2023-10-14T01:15:31.916Z,16.30
2023-10-14T01:18:02.748Z,16.42
2023-10-14T01:20:42.261Z,16.30
2023-10-14T01:23:16.539Z,16.26
2023-10-14T01:25:49.604Z,16.22
2023-10-14T01:28:32.112Z,16.22
2023-10-14T01:31:13.224Z,16.18
2023-10-14T01:33:45.067Z,16.10
2023-10-14T01:36:17.291Z,16.08
2023-10-14T01:39:23.309Z,16.09
2023-10-14T01:41:55.980Z,16.05
2023-10-14T01:44:27.659Z,16.01
2023-10-14T01:46:57.590Z,15.98
2023-10-14T01:49:29.057Z,15.96
2023-10-14T01:52:01.605Z,15.90
2023-10-14T01:54:31.463Z,15.89
2023-10-14T01:57:01.660Z,15.87
2023-10-14T01:59:31.796Z,15.84
2023-10-14T02:02:07.383Z,15.80
2023-10-14T02:04:41.679Z,15.75
2023-10-14T02:07:22.139Z,15.88
2023-10-14T02:09:51.304Z,15.75
2023-10-14T02:12:27.979Z,15.66
2023-10-14T02:15:03.199Z,15.63
2023-10-14T02:17:33.141Z,15.56
2023-10-14T02:20:21.923Z,15.53
2023-10-14T02:22:53.485Z,15.53
2023-10-14T02:25:22.783Z,15.51
2023-10-14T02:27:55.074Z,15.50
2023-10-14T02:30:24.728Z,15.50
2023-10-14T02:32:54.730Z,15.46
2023-10-14T02:35:23.662Z,15.47
2023-10-14T02:37:55.742Z,15.47
2023-10-14T02:40:28.799Z,15.46
2023-10-14T02:43:02.296Z,15.45
2023-10-14T02:45:41.387Z,15.43
2023-10-14T02:48:13.170Z,15.40
2023-10-14T02:50:52.458Z,15.38
2023-10-14T02:53:29.733Z,15.35
2023-10-14T02:56:06.827Z,15.33
2023-10-14T02:58:36.134Z,15.32
2023-10-14T03:01:07.454Z,15.30
2023-10-14T03:03:37.415Z,15.28
2023-10-14T03:06:11.763Z,15.28
2023-10-14T03:08:43.872Z,15.23
2023-10-14T03:11:23.625Z,15.21
2023-10-14T03:13:52.686Z,15.22
2023-10-14T03:16:23.713Z,15.21
2023-10-14T03:19:18.361Z,15.22
2023-10-14T03:22:03.820Z,15.19
2023-10-14T03:24:40.971Z,15.22
2023-10-14T03:27:11.219Z,15.20
2023-10-14T03:29:48.652Z,15.21
2023-10-14T03:32:18.007Z,15.19
2023-10-14T03:34:49.972Z,15.20
2023-10-14T03:37:28.639Z,15.19
2023-10-14T03:40:19.412Z,15.18
2023-10-14T03:42:54.977Z,15.17
2023-10-14T03:45:26.222Z,15.15
2023-10-14T03:48:01.777Z,15.14
2023-10-14T03:50:31.196Z,15.13
2023-10-14T03:52:59.977Z,15.12
2023-10-14T03:55:28.440Z,15.12
2023-10-14T03:58:05.255Z,15.12
2023-10-14T04:00:45.644Z,15.12
2023-10-14T04:03:14.834Z,15.10
2023-10-14T04:05:54.069Z,15.10
2023-10-14T04:08:32.608Z,15.12
2023-10-14T04:11:17.217Z,15.11
2023-10-14T04:14:05.446Z,15.14
2023-10-14T04:16:46.974Z,15.14
2023-10-14T04:19:20.553Z,15.13
2023-10-14T04:22:03.466Z,15.13
2023-10-14T04:24:34.278Z,15.13
2023-10-14T04:27:26.445Z,15.09
2023-10-14T04:30:00.206Z,15.11
2023-10-14T04:32:44.472Z,15.11
2023-10-14T04:35:16.353Z,15.11
2023-10-14T04:37:54.449Z,15.09
2023-10-14T04:40:35.070Z,15.10
2023-10-14T04:43:19.978Z,15.10
2023-10-14T04:46:02.549Z,15.10
2023-10-14T04:48:37.656Z,15.08
2023-10-14T04:51:21.103Z,15.10
2023-10-14T04:53:53.596Z,15.13
2023-10-14T04:56:31.615Z,15.14
2023-10-14T04:59:01.375Z,15.14
2023-10-14T05:01:29.886Z,15.16
2023-10-14T05:03:59.826Z,15.18
2023-10-14T05:06:43.878Z,15.19
2023-10-14T05:09:30.086Z,15.21
2023-10-14T05:12:11.985Z,15.18
2023-10-14T05:14:44.019Z,15.24
2023-10-14T05:17:18.720Z,15.23
2023-10-14T05:19:56.609Z,15.21
2023-10-14T05:22:28.489Z,15.20
2023-10-14T05:25:05.250Z,15.15
2023-10-14T05:27:57.178Z,15.18
2023-10-14T05:30:35.368Z,15.19
2023-10-14T05:33:08.667Z,15.18
2023-10-14T05:38:37.470Z,15.15
2023-10-14T05:41:11.937Z,15.15
2023-10-14T05:43:42.578Z,15.13
2023-10-14T05:46:14.081Z,15.13
2023-10-14T05:48:43.435Z,15.16
2023-10-14T05:51:17.393Z,15.13
2023-10-14T05:53:49.743Z,15.17
2023-10-14T05:56:19.084Z,15.14
2023-10-14T05:59:14.346Z,15.16
2023-10-14T06:01:47.879Z,15.10
2023-10-14T06:04:21.111Z,15.07
2023-10-14T06:06:51.901Z,14.99
2023-10-14T06:09:22.681Z,14.99
2023-10-14T06:11:54.875Z,14.96
2023-10-14T06:14:24.749Z,14.92
2023-10-14T06:16:54.026Z,14.88
2023-10-14T06:19:23.098Z,14.86
2023-10-14T06:21:52.580Z,14.85
2023-10-14T06:24:22.122Z,14.83
2023-10-14T06:26:50.722Z,14.81
2023-10-14T06:29:19.502Z,14.77
2023-10-14T06:31:51.210Z,14.74
2023-10-14T06:34:24.113Z,14.71
2023-10-14T06:36:54.253Z,14.68
2023-10-14T06:39:28.117Z,14.66
2023-10-14T06:41:57.493Z,14.67
2023-10-14T06:44:31.274Z,14.62
2023-10-14T06:47:04.754Z,14.57
2023-10-14T06:49:38.649Z,14.59
2023-10-14T06:52:08.275Z,14.74
2023-10-14T06:54:38.286Z,14.61
2023-10-14T06:57:09.471Z,14.58
2023-10-14T06:59:39.573Z,14.56
2023-10-14T07:02:12.942Z,14.55
2023-10-14T07:04:43.252Z,14.54
2023-10-14T07:07:15.460Z,14.56
2023-10-14T07:09:46.361Z,14.55
2023-10-14T07:12:16.140Z,14.57
2023-10-14T07:14:48.637Z,14.55
2023-10-14T07:17:24.468Z,14.57
2023-10-14T07:19:53.458Z,14.60
2023-10-14T07:22:23.077Z,14.61
2023-10-14T07:24:54.703Z,14.64
2023-10-14T07:27:25.632Z,14.64
2023-10-14T07:29:54.503Z,14.64
2023-10-14T07:32:30.435Z,14.63
2023-10-14T07:35:04.240Z,14.64
2023-10-14T07:37:35.689Z,14.64
2023-10-14T07:40:13.417Z,14.61
2023-10-14T07:42:43.853Z,14.60
2023-10-14T07:45:16.108Z,14.60
2023-10-14T07:47:45.287Z,14.62
2023-10-14T07:50:17.933Z,14.61
2023-10-14T07:52:47.544Z,14.61
2023-10-14T07:55:24.258Z,14.60
2023-10-14T07:57:57.682Z,14.61
2023-10-14T08:00:38.629Z,14.60
2023-10-14T08:03:16.785Z,14.60
2023-10-14T08:05:51.819Z,14.59
2023-10-14T08:08:27.828Z,14.61
2023-10-14T08:10:59.313Z,14.62
2023-10-14T08:13:29.203Z,14.57
2023-10-14T08:15:59.858Z,14.53
2023-10-14T08:18:33.589Z,14.61
2023-10-14T08:21:05.520Z,14.61
2023-10-14T08:23:35.059Z,14.59
2023-10-14T08:26:05.283Z,14.61
2023-10-14T08:28:35.694Z,14.63
2023-10-14T08:31:06.479Z,14.63
2023-10-14T08:33:38.254Z,14.64
2023-10-14T08:36:08.472Z,14.66
2023-10-14T08:38:38.355Z,14.66
2023-10-14T08:41:08.315Z,14.67
2023-10-14T08:43:43.832Z,14.67
2023-10-14T08:46:16.639Z,14.67
2023-10-14T08:48:49.025Z,14.67
2023-10-14T08:51:20.573Z,14.68
2023-10-14T08:53:55.033Z,14.69
2023-10-14T08:56:27.110Z,14.69
2023-10-14T08:58:56.804Z,14.69
2023-10-14T09:01:27.258Z,14.65
2023-10-14T09:04:01.659Z,14.71
2023-10-14T09:06:33.184Z,14.74
2023-10-14T09:09:18.881Z,14.76
2023-10-14T09:11:48.327Z,14.74
2023-10-14T09:14:21.234Z,14.73
2023-10-14T09:16:51.455Z,14.73
2023-10-14T09:19:23.932Z,14.73
2023-10-14T09:21:59.154Z,14.72
2023-10-14T09:24:28.311Z,14.75
2023-10-14T09:27:00.183Z,14.75
2023-10-14T09:29:29.046Z,14.75
2023-10-14T09:32:01.644Z,14.74
2023-10-14T09:34:32.365Z,14.76
2023-10-14T09:37:19.302Z,14.76
2023-10-14T09:40:04.822Z,14.77
2023-10-14T09:42:35.295Z,14.77
2023-10-14T09:45:15.087Z,14.80
2023-10-14T09:47:47.949Z,14.81
2023-10-14T09:50:18.785Z,14.83
2023-10-14T09:52:54.419Z,14.82
2023-10-14T09:55:23.986Z,14.87
2023-10-14T09:57:58.619Z,14.89
2023-10-14T10:00:28.876Z,14.90
2023-10-14T10:02:58.463Z,14.93
2023-10-14T10:05:46.888Z,14.93
2023-10-14T10:08:37.244Z,14.99
2023-10-14T10:11:08.156Z,14.98
2023-10-14T10:13:37.910Z,14.95
2023-10-14T10:16:07.782Z,14.97
2023-10-14T10:18:59.920Z,15.03
2023-10-14T10:21:33.424Z,15.03
2023-10-14T10:24:15.691Z,15.04
2023-10-14T10:27:01.255Z,15.08
2023-10-14T10:29:30.228Z,15.19
2023-10-14T10:32:21.547Z,15.07
2023-10-14T10:35:12.539Z,15.08
2023-10-14T10:37:57.018Z,15.07
2023-10-14T10:40:28.475Z,15.06
2023-10-14T10:43:13.679Z,15.06
2023-10-14T10:46:42.153Z,15.09
2023-10-14T10:49:13.739Z,15.06
2023-10-14T10:52:16.030Z,15.10
2023-10-14T10:54:46.455Z,15.07
2023-10-14T10:57:20.491Z,15.07
2023-10-14T10:59:50.023Z,15.08
2023-10-14T11:02:23.159Z,15.08
2023-10-14T11:04:53.629Z,15.10
2023-10-14T11:07:25.091Z,15.09
2023-10-14T11:09:55.858Z,15.09
2023-10-14T11:12:28.031Z,15.10
2023-10-14T11:15:03.506Z,15.10
2023-10-14T11:18:01.376Z,15.15
2023-10-14T11:20:47.285Z,15.09
2023-10-14T11:23:18.147Z,15.09
2023-10-14T11:25:49.691Z,15.11
2023-10-14T11:28:20.460Z,15.12
2023-10-14T11:30:50.144Z,15.11
2023-10-14T11:33:31.507Z,15.10
2023-10-14T11:36:00.794Z,15.12
2023-10-14T11:38:31.373Z,15.10
2023-10-14T11:41:27.005Z,15.20
2023-10-14T11:43:56.881Z,15.27
2023-10-14T11:46:26.818Z,15.15
2023-10-14T11:48:56.044Z,15.09
2023-10-14T11:51:27.458Z,15.12
2023-10-14T11:54:00.269Z,15.12
2023-10-14T11:56:29.463Z,15.12
2023-10-14T11:59:03.134Z,15.13
2023-10-14T12:01:38.000Z,15.16
2023-10-14T12:04:07.688Z,15.15
2023-10-14T12:06:39.388Z,15.07
2023-10-14T12:09:12.389Z,15.15
2023-10-14T12:11:44.376Z,15.20
2023-10-14T12:14:18.370Z,15.19
2023-10-14T12:16:51.931Z,15.20
2023-10-14T12:19:21.272Z,15.22
2023-10-14T12:21:55.256Z,15.24
2023-10-14T12:24:26.896Z,15.20
2023-10-14T12:26:55.640Z,15.22
2023-10-14T12:29:26.856Z,15.21
2023-10-14T12:32:17.355Z,15.21
2023-10-14T12:34:49.826Z,15.22
2023-10-14T12:37:26.602Z,15.21
2023-10-14T12:40:06.119Z,15.15
2023-10-14T12:42:49.478Z,15.19
2023-10-14T12:45:24.964Z,15.19
2023-10-14T12:48:00.600Z,15.19
2023-10-14T12:50:29.857Z,15.19
2023-10-14T12:53:01.101Z,15.21
2023-10-14T12:55:32.455Z,15.21
2023-10-14T12:58:03.635Z,15.23
2023-10-14T13:00:32.981Z,15.22
2023-10-14T13:03:11.859Z,15.23
2023-10-14T13:05:41.038Z,15.25
2023-10-14T13:08:17.189Z,15.35
2023-10-14T13:10:47.681Z,15.38
2023-10-14T13:13:18.499Z,15.28
2023-10-14T13:15:51.820Z,15.24
2023-10-14T13:18:25.929Z,15.23
2023-10-14T13:21:02.754Z,15.21
2023-10-14T13:23:32.112Z,15.23
2023-10-14T13:26:01.682Z,15.22
2023-10-14T13:28:34.296Z,15.23
2023-10-14T13:31:18.467Z,15.25
2023-10-14T13:33:49.741Z,15.25
2023-10-14T13:36:22.316Z,15.24
2023-10-14T13:38:54.744Z,15.22
2023-10-14T13:41:34.142Z,15.20
2023-10-14T13:44:06.756Z,15.20
2023-10-14T13:46:36.393Z,15.19
2023-10-14T13:49:06.282Z,15.21
2023-10-14T13:51:37.228Z,15.21
2023-10-14T13:54:06.786Z,15.25
2023-10-14T13:56:37.352Z,15.25
2023-10-14T13:59:06.857Z,15.25
2023-10-14T14:01:38.011Z,15.27
2023-10-14T14:04:12.951Z,15.28
2023-10-14T14:06:45.272Z,15.27
2023-10-14T14:09:25.402Z,15.25
2023-10-14T14:12:24.235Z,15.30
2023-10-14T14:14:57.944Z,15.27
2023-10-14T14:17:31.096Z,15.28
2023-10-14T14:20:00.645Z,15.31
2023-10-14T14:22:30.745Z,15.32
2023-10-14T14:25:02.323Z,15.35
2023-10-14T14:27:35.210Z,15.33
2023-10-14T14:30:12.073Z,15.36
2023-10-14T14:33:16.158Z,15.41
2023-10-14T14:36:15.294Z,15.42
2023-10-14T14:39:01.995Z,15.40
2023-10-14T14:41:46.965Z,15.41
2023-10-14T14:44:21.401Z,15.40
2023-10-14T14:46:52.885Z,15.41
2023-10-14T14:49:25.827Z,15.41
2023-10-14T14:51:56.264Z,15.43
2023-10-14T14:54:26.077Z,15.45
2023-10-14T14:56:58.294Z,15.47
2023-10-14T14:59:28.328Z,15.47
2023-10-14T15:01:59.422Z,15.49
2023-10-14T15:04:31.595Z,15.51
2023-10-14T15:07:02.231Z,15.50
2023-10-14T15:09:33.754Z,15.50
2023-10-14T15:12:07.136Z,15.53
2023-10-14T15:14:41.434Z,15.54
2023-10-14T15:17:12.341Z,15.54
2023-10-14T15:19:44.571Z,15.55
2023-10-14T15:22:15.639Z,15.53
2023-10-14T15:24:45.782Z,15.55
2023-10-14T15:27:15.282Z,15.56
2023-10-14T15:29:51.605Z,15.57
2023-10-14T15:32:20.989Z,15.59
2023-10-14T15:34:53.846Z,15.58
2023-10-14T15:37:29.597Z,15.64
2023-10-14T15:40:04.279Z,15.65
2023-10-14T15:43:30.217Z,15.73
2023-10-14T15:46:15.338Z,15.68
2023-10-14T15:48:53.502Z,15.73
2023-10-14T15:51:22.657Z,15.71
2023-10-14T15:53:55.468Z,15.76
2023-10-14T15:56:26.518Z,15.80
2023-10-14T15:59:05.286Z,15.82
2023-10-14T16:01:39.471Z,15.84
2023-10-14T16:04:17.619Z,15.86
2023-10-14T16:06:56.661Z,15.89
2023-10-14T16:09:28.328Z,15.91
2023-10-14T16:11:58.062Z,15.91
2023-10-14T16:14:28.429Z,15.95
2023-10-14T16:16:57.881Z,15.96
2023-10-14T16:19:28.491Z,15.97
2023-10-14T16:22:00.140Z,16.01
2023-10-14T16:24:30.962Z,16.02
2023-10-14T16:27:01.092Z,16.03
2023-10-14T16:29:30.326Z,16.05
2023-10-14T16:32:01.901Z,16.07
2023-10-14T16:34:31.647Z,16.08
2023-10-14T16:37:02.150Z,16.09
2023-10-14T16:39:31.798Z,16.11
2023-10-14T16:42:05.743Z,16.14
2023-10-14T16:44:38.602Z,16.13
2023-10-14T16:47:16.927Z,16.18
2023-10-14T16:49:53.692Z,16.32
2023-10-14T16:52:30.198Z,16.23
2023-10-14T16:55:05.165Z,16.20
2023-10-14T16:57:36.763Z,16.21
2023-10-14T17:00:14.536Z,16.23
2023-10-14T17:02:49.503Z,16.25
2023-10-14T17:05:20.754Z,16.27
2023-10-14T17:08:03.209Z,16.28
2023-10-14T17:10:37.044Z,16.30
2023-10-14T17:13:15.040Z,16.32
2023-10-14T17:15:48.863Z,16.34
2023-10-14T17:18:18.679Z,16.37
2023-10-14T17:20:50.105Z,16.36
2023-10-14T17:23:22.654Z,16.39
2023-10-14T17:25:54.625Z,16.39
2023-10-14T17:28:24.080Z,16.37
2023-10-14T17:30:56.416Z,16.41
2023-10-14T17:33:25.322Z,16.44
2023-10-14T17:35:56.616Z,16.46
2023-10-14T17:38:30.169Z,16.47
2023-10-14T17:43:56.848Z,16.64
2023-10-14T17:46:26.937Z,16.56
2023-10-14T17:48:57.126Z,16.53
2023-10-14T17:51:27.724Z,16.54
2023-10-14T17:53:57.363Z,16.56
2023-10-14T17:56:27.130Z,16.58
2023-10-14T17:58:58.699Z,16.62
2023-10-14T18:01:28.121Z,16.63
2023-10-14T18:03:57.614Z,16.66
2023-10-14T18:06:28.162Z,16.65
2023-10-14T18:09:15.343Z,16.73
2023-10-14T18:11:47.720Z,16.72
2023-10-14T18:14:21.716Z,16.74
2023-10-14T18:17:03.178Z,16.76
2023-10-14T18:19:33.047Z,16.77
2023-10-14T18:22:02.059Z,16.78
2023-10-14T18:24:34.671Z,16.80
2023-10-14T18:27:09.024Z,16.80
2023-10-14T18:29:41.737Z,16.81
2023-10-14T18:32:13.825Z,16.84
2023-10-14T18:34:43.433Z,16.85
2023-10-14T18:37:14.485Z,16.84
2023-10-14T18:39:51.603Z,16.88
2023-10-14T18:42:21.395Z,16.89
2023-10-14T18:44:50.333Z,16.91
2023-10-14T18:47:19.690Z,16.92
2023-10-14T18:49:48.679Z,16.91
2023-10-14T18:52:18.307Z,16.92
2023-10-14T18:54:50.665Z,16.94
2023-10-14T18:57:19.546Z,16.94
2023-10-14T18:59:50.958Z,16.98
2023-10-14T19:02:21.642Z,16.98
2023-10-14T19:04:51.174Z,16.96
2023-10-14T19:07:20.868Z,16.99
2023-10-14T19:09:50.007Z,17.01
2023-10-14T19:12:18.843Z,17.01
2023-10-14T19:14:49.191Z,17.00
2023-10-14T19:17:19.248Z,17.01
2023-10-14T19:19:49.708Z,17.02
2023-10-14T19:22:19.480Z,17.04
2023-10-14T19:24:48.396Z,17.03
2023-10-14T19:27:24.719Z,17.04
2023-10-14T19:30:00.295Z,17.04
2023-10-14T19:32:29.767Z,17.05
2023-10-14T19:35:04.175Z,17.06
2023-10-14T19:37:39.366Z,17.08
2023-10-14T19:40:16.564Z,17.09
2023-10-14T19:42:53.947Z,17.10
2023-10-14T19:45:35.734Z,17.12
2023-10-14T19:48:09.383Z,17.12
2023-10-14T19:50:47.068Z,17.13
2023-10-14T19:53:19.986Z,17.14
2023-10-14T19:55:49.351Z,17.14
2023-10-14T19:58:19.612Z,17.15
2023-10-14T20:00:51.167Z,17.14
2023-10-14T20:03:21.417Z,17.15
2023-10-14T20:05:53.683Z,17.17
2023-10-14T20:08:29.570Z,17.18
2023-10-14T20:11:01.175Z,17.19
2023-10-14T20:13:31.371Z,17.19
2023-10-14T20:16:04.149Z,17.21
2023-10-14T20:18:37.917Z,17.23
2023-10-14T20:21:07.616Z,17.25
2023-10-14T20:23:36.998Z,17.24
2023-10-14T20:26:14.723Z,17.25
2023-10-14T20:28:47.588Z,17.26
2023-10-14T20:31:23.711Z,17.25
2023-10-14T20:33:54.834Z,17.24
2023-10-14T20:36:25.865Z,17.26
2023-10-14T20:39:30.247Z,17.32
2023-10-14T20:42:01.188Z,17.27
2023-10-14T20:44:34.442Z,17.29
2023-10-14T20:47:03.363Z,17.29
2023-10-14T20:49:33.247Z,17.29
2023-10-14T20:52:02.215Z,17.28
2023-10-14T20:54:31.361Z,17.28
2023-10-14T20:57:00.380Z,17.29
2023-10-14T20:59:29.094Z,17.30
2023-10-14T21:02:01.219Z,17.31
2023-10-14T21:04:35.226Z,17.32
2023-10-14T21:07:04.941Z,17.30
2023-10-14T21:09:34.771Z,17.34
2023-10-14T21:12:07.266Z,17.32
2023-10-14T21:14:36.209Z,17.36
2023-10-14T21:17:06.686Z,17.34
2023-10-14T21:19:35.418Z,17.36
2023-10-14T21:22:04.489Z,17.37
2023-10-14T21:24:42.815Z,17.39
2023-10-14T21:27:20.882Z,17.40
2023-10-14T21:29:52.160Z,17.40
2023-10-14T21:32:22.487Z,17.40
2023-10-14T21:34:54.757Z,17.41
2023-10-14T21:37:27.021Z,17.42
2023-10-14T21:39:58.816Z,17.42
2023-10-14T21:42:30.428Z,17.41
2023-10-14T21:44:59.603Z,17.40
2023-10-14T21:47:28.679Z,17.40
2023-10-14T21:49:57.958Z,17.40
2023-10-14T21:55:21.522Z,17.40
2023-10-14T21:57:52.353Z,17.42
2023-10-14T22:00:52.697Z,17.42
2023-10-14T22:03:22.973Z,17.42
2023-10-14T22:05:55.074Z,17.42
2023-10-14T22:08:27.745Z,17.42
2023-10-14T22:10:57.572Z,17.44
2023-10-14T22:13:26.905Z,17.43
2023-10-14T22:15:55.469Z,17.42
2023-10-14T22:18:25.911Z,17.42
2023-10-14T22:20:54.755Z,17.39
2023-10-14T22:23:24.460Z,17.42
2023-10-14T22:25:58.532Z,17.35
2023-10-14T22:28:27.785Z,17.57
2023-10-14T22:30:56.572Z,17.44
2023-10-14T22:33:26.026Z,17.41
2023-10-14T22:35:57.480Z,17.36
2023-10-14T22:38:29.250Z,17.42
2023-10-14T22:40:59.316Z,17.44
2023-10-14T22:43:52.798Z,17.41
2023-10-14T22:46:23.736Z,17.42
2023-10-14T22:48:52.616Z,17.43
2023-10-14T22:51:24.007Z,17.43
2023-10-14T22:53:54.064Z,17.40
2023-10-14T22:56:26.755Z,17.40
2023-10-14T22:58:56.408Z,17.42
2023-10-14T23:01:30.653Z,17.42
2023-10-14T23:04:00.572Z,17.43
2023-10-14T23:06:33.699Z,17.46
2023-10-14T23:09:07.072Z,17.45
2023-10-14T23:11:36.849Z,17.45
2023-10-14T23:14:06.262Z,17.47
2023-10-14T23:16:35.492Z,17.45
2023-10-14T23:19:05.794Z,17.45
2023-10-14T23:21:35.569Z,17.47
2023-10-14T23:24:07.886Z,17.48
2023-10-14T23:26:45.933Z,17.47
2023-10-14T23:29:14.853Z,17.44
2023-10-14T23:31:44.002Z,17.43
2023-10-14T23:34:14.962Z,17.37
2023-10-14T23:36:45.837Z,17.38
2023-10-14T23:39:18.898Z,17.34
2023-10-14T23:41:47.825Z,17.31
2023-10-14T23:44:19.793Z,17.48
2023-10-14T23:46:52.981Z,17.44
2023-10-14T23:49:22.235Z,17.31
2023-10-14T23:51:51.589Z,17.18
2023-10-14T23:54:26.695Z,17.26
2023-10-14T23:56:56.244Z,17.30
2023-10-14T23:59:27.484Z,17.27
